sensor_id;sensor_type;location;lat;lon;timestamp;P1;durP1;ratioP1;P2;durP2;ratioP2
64110;SDS011;50401;48.188;11.566;2023-08-24T00:01:14;21.15;;;10.38;;
64110;SDS011;50401;48.188;11.566;2023-08-24T00:03:41;22.13;;;10.35;;
64110;SDS011;50401;48.188;11.566;2023-08-24T00:06:06;17.20;;;10.38;;
64110;SDS011;50401;48.188;11.566;2023-08-24T00:08:32;21.23;;;11.05;;
64110;SDS011;50401;48.188;11.566;2023-08-24T00:10:57;20.60;;;9.93;;
64110;SDS011;50401;48.188;11.566;2023-08-24T00:13:23;23.73;;;10.20;;
64110;SDS011;50401;48.188;11.566;2023-08-24T00:15:49;20.73;;;10.77;;
64110;SDS011;50401;48.188;11.566;2023-08-24T00:18:14;24.75;;;11.73;;
64110;SDS011;50401;48.188;11.566;2023-08-24T00:20:39;17.65;;;11.02;;
64110;SDS011;50401;48.188;11.566;2023-08-24T00:23:05;24.45;;;12.07;;
64110;SDS011;50401;48.188;11.566;2023-08-24T00:25:30;19.08;;;11.23;;
64110;SDS011;50401;48.188;11.566;2023-08-24T00:27:56;30.92;;;11.63;;
64110;SDS011;50401;48.188;11.566;2023-08-24T00:30:22;20.70;;;10.88;;
64110;SDS011;50401;48.188;11.566;2023-08-24T00:32:48;21.02;;;10.95;;
64110;SDS011;50401;48.188;11.566;2023-08-24T00:35:13;19.27;;;10.65;;
64110;SDS011;50401;48.188;11.566;2023-08-24T00:37:39;23.15;;;11.05;;
64110;SDS011;50401;48.188;11.566;2023-08-24T00:40:05;19.77;;;10.43;;
64110;SDS011;50401;48.188;11.566;2023-08-24T00:42:38;15.75;;;10.38;;
64110;SDS011;50401;48.188;11.566;2023-08-24T00:45:04;22.27;;;10.73;;
64110;SDS011;50401;48.188;11.566;2023-08-24T00:47:30;17.27;;;10.25;;
64110;SDS011;50401;48.188;11.566;2023-08-24T00:49:56;21.77;;;11.02;;
64110;SDS011;50401;48.188;11.566;2023-08-24T00:52:24;31.05;;;10.95;;
64110;SDS011;50401;48.188;11.566;2023-08-24T00:54:52;21.02;;;11.63;;
64110;SDS011;50401;48.188;11.566;2023-08-24T00:57:17;22.38;;;11.00;;
64110;SDS011;50401;48.188;11.566;2023-08-24T00:59:43;19.48;;;10.52;;
64110;SDS011;50401;48.188;11.566;2023-08-24T01:02:08;16.73;;;10.85;;
64110;SDS011;50401;48.188;11.566;2023-08-24T01:04:34;34.58;;;12.48;;
64110;SDS011;50401;48.188;11.566;2023-08-24T01:06:59;16.80;;;10.48;;
64110;SDS011;50401;48.188;11.566;2023-08-24T01:09:24;19.52;;;11.48;;
64110;SDS011;50401;48.188;11.566;2023-08-24T01:17:38;22.80;;;11.35;;
64110;SDS011;50401;48.188;11.566;2023-08-24T01:20:06;22.02;;;10.65;;
64110;SDS011;50401;48.188;11.566;2023-08-24T01:22:40;23.55;;;11.55;;
64110;SDS011;50401;48.188;11.566;2023-08-24T01:25:15;24.70;;;11.80;;
64110;SDS011;50401;48.188;11.566;2023-08-24T01:27:45;29.45;;;11.18;;
64110;SDS011;50401;48.188;11.566;2023-08-24T01:30:12;26.85;;;11.88;;
64110;SDS011;50401;48.188;11.566;2023-08-24T01:32:39;24.55;;;11.70;;
64110;SDS011;50401;48.188;11.566;2023-08-24T01:35:06;21.08;;;11.82;;
64110;SDS011;50401;48.188;11.566;2023-08-24T01:37:34;24.67;;;13.15;;
64110;SDS011;50401;48.188;11.566;2023-08-24T01:40:02;19.30;;;12.90;;
64110;SDS011;50401;48.188;11.566;2023-08-24T01:42:33;25.13;;;12.02;;
64110;SDS011;50401;48.188;11.566;2023-08-24T01:45:03;29.67;;;13.45;;
64110;SDS011;50401;48.188;11.566;2023-08-24T01:47:32;24.45;;;13.10;;
64110;SDS011;50401;48.188;11.566;2023-08-24T01:49:58;28.23;;;14.45;;
64110;SDS011;50401;48.188;11.566;2023-08-24T01:52:24;24.88;;;13.48;;
64110;SDS011;50401;48.188;11.566;2023-08-24T01:54:51;26.38;;;13.68;;
64110;SDS011;50401;48.188;11.566;2023-08-24T01:57:17;23.77;;;14.35;;
64110;SDS011;50401;48.188;11.566;2023-08-24T01:59:42;28.20;;;14.45;;
64110;SDS011;50401;48.188;11.566;2023-08-24T02:02:07;28.88;;;15.07;;
64110;SDS011;50401;48.188;11.566;2023-08-24T02:04:33;34.97;;;15.30;;
64110;SDS011;50401;48.188;11.566;2023-08-24T02:06:58;32.67;;;14.80;;
64110;SDS011;50401;48.188;11.566;2023-08-24T02:09:23;22.52;;;14.50;;
64110;SDS011;50401;48.188;11.566;2023-08-24T02:11:50;31.25;;;15.45;;
64110;SDS011;50401;48.188;11.566;2023-08-24T02:14:15;44.88;;;16.05;;
64110;SDS011;50401;48.188;11.566;2023-08-24T02:16:40;31.25;;;15.63;;
64110;SDS011;50401;48.188;11.566;2023-08-24T02:19:05;32.47;;;16.05;;
64110;SDS011;50401;48.188;11.566;2023-08-24T02:21:31;27.35;;;14.88;;
64110;SDS011;50401;48.188;11.566;2023-08-24T02:23:56;30.25;;;14.07;;
64110;SDS011;50401;48.188;11.566;2023-08-24T02:26:21;25.75;;;12.82;;
64110;SDS011;50401;48.188;11.566;2023-08-24T02:28:47;23.33;;;12.85;;
64110;SDS011;50401;48.188;11.566;2023-08-24T02:31:12;22.80;;;12.77;;
64110;SDS011;50401;48.188;11.566;2023-08-24T02:33:37;27.70;;;14.38;;
64110;SDS011;50401;48.188;11.566;2023-08-24T02:36:03;21.60;;;13.43;;
64110;SDS011;50401;48.188;11.566;2023-08-24T02:38:28;24.98;;;13.30;;
64110;SDS011;50401;48.188;11.566;2023-08-24T02:41:03;33.78;;;14.02;;
64110;SDS011;50401;48.188;11.566;2023-08-24T02:43:30;29.73;;;13.40;;
64110;SDS011;50401;48.188;11.566;2023-08-24T02:45:59;30.63;;;14.32;;
64110;SDS011;50401;48.188;11.566;2023-08-24T02:48:26;27.48;;;14.73;;
64110;SDS011;50401;48.188;11.566;2023-08-24T02:50:51;28.85;;;14.48;;
64110;SDS011;50401;48.188;11.566;2023-08-24T02:53:18;23.30;;;15.18;;
64110;SDS011;50401;48.188;11.566;2023-08-24T02:55:43;25.75;;;14.88;;
64110;SDS011;50401;48.188;11.566;2023-08-24T02:58:08;24.80;;;14.55;;
64110;SDS011;50401;48.188;11.566;2023-08-24T03:00:34;27.80;;;15.07;;
64110;SDS011;50401;48.188;11.566;2023-08-24T03:02:59;26.85;;;15.63;;
64110;SDS011;50401;48.188;11.566;2023-08-24T03:05:24;39.10;;;15.98;;
64110;SDS011;50401;48.188;11.566;2023-08-24T03:07:50;29.70;;;14.93;;
64110;SDS011;50401;48.188;11.566;2023-08-24T03:10:15;40.05;;;17.23;;
64110;SDS011;50401;48.188;11.566;2023-08-24T03:12:40;27.67;;;16.02;;
64110;SDS011;50401;48.188;11.566;2023-08-24T03:15:06;31.00;;;16.90;;
64110;SDS011;50401;48.188;11.566;2023-08-24T03:17:32;36.63;;;16.57;;
64110;SDS011;50401;48.188;11.566;2023-08-24T03:19:57;31.27;;;17.15;;
64110;SDS011;50401;48.188;11.566;2023-08-24T03:22:22;30.85;;;17.20;;
64110;SDS011;50401;48.188;11.566;2023-08-24T03:24:48;34.97;;;16.67;;
64110;SDS011;50401;48.188;11.566;2023-08-24T03:27:13;32.05;;;17.35;;
64110;SDS011;50401;48.188;11.566;2023-08-24T03:29:38;26.83;;;15.82;;
64110;SDS011;50401;48.188;11.566;2023-08-24T03:32:04;39.22;;;16.10;;
64110;SDS011;50401;48.188;11.566;2023-08-24T03:34:29;30.38;;;16.13;;
64110;SDS011;50401;48.188;11.566;2023-08-24T03:36:55;29.02;;;14.65;;
64110;SDS011;50401;48.188;11.566;2023-08-24T03:39:21;27.75;;;14.93;;
64110;SDS011;50401;48.188;11.566;2023-08-24T03:41:46;36.00;;;15.30;;
64110;SDS011;50401;48.188;11.566;2023-08-24T03:44:11;26.40;;;15.75;;
64110;SDS011;50401;48.188;11.566;2023-08-24T03:46:36;32.83;;;15.45;;
64110;SDS011;50401;48.188;11.566;2023-08-24T03:49:02;27.85;;;16.23;;
64110;SDS011;50401;48.188;11.566;2023-08-24T03:51:27;32.38;;;16.67;;
64110;SDS011;50401;48.188;11.566;2023-08-24T03:53:53;29.63;;;15.48;;
64110;SDS011;50401;48.188;11.566;2023-08-24T03:56:18;30.92;;;16.15;;
64110;SDS011;50401;48.188;11.566;2023-08-24T03:58:43;27.05;;;16.73;;
64110;SDS011;50401;48.188;11.566;2023-08-24T04:01:11;30.23;;;15.77;;
64110;SDS011;50401;48.188;11.566;2023-08-24T04:03:37;28.20;;;15.50;;
64110;SDS011;50401;48.188;11.566;2023-08-24T04:06:02;28.50;;;16.15;;
64110;SDS011;50401;48.188;11.566;2023-08-24T04:08:27;34.78;;;15.77;;
64110;SDS011;50401;48.188;11.566;2023-08-24T04:10:53;26.23;;;14.93;;
64110;SDS011;50401;48.188;11.566;2023-08-24T04:13:18;28.35;;;15.13;;
64110;SDS011;50401;48.188;11.566;2023-08-24T04:15:44;21.30;;;15.63;;
64110;SDS011;50401;48.188;11.566;2023-08-24T04:18:09;33.08;;;16.05;;
64110;SDS011;50401;48.188;11.566;2023-08-24T04:20:36;25.98;;;16.20;;
64110;SDS011;50401;48.188;11.566;2023-08-24T04:23:01;32.00;;;17.40;;
64110;SDS011;50401;48.188;11.566;2023-08-24T04:25:27;27.50;;;16.52;;
64110;SDS011;50401;48.188;11.566;2023-08-24T04:27:52;28.90;;;16.35;;
64110;SDS011;50401;48.188;11.566;2023-08-24T04:30:17;28.25;;;17.27;;
64110;SDS011;50401;48.188;11.566;2023-08-24T04:32:43;32.55;;;17.77;;
64110;SDS011;50401;48.188;11.566;2023-08-24T04:35:08;38.60;;;17.02;;
64110;SDS011;50401;48.188;11.566;2023-08-24T04:37:35;37.92;;;17.75;;
64110;SDS011;50401;48.188;11.566;2023-08-24T04:40:00;36.42;;;18.25;;
64110;SDS011;50401;48.188;11.566;2023-08-24T04:42:25;31.90;;;17.20;;
64110;SDS011;50401;48.188;11.566;2023-08-24T04:44:51;40.65;;;16.15;;
64110;SDS011;50401;48.188;11.566;2023-08-24T04:47:16;31.02;;;17.33;;
64110;SDS011;50401;48.188;11.566;2023-08-24T04:49:41;29.08;;;16.10;;
64110;SDS011;50401;48.188;11.566;2023-08-24T04:52:07;37.22;;;15.70;;
64110;SDS011;50401;48.188;11.566;2023-08-24T04:54:32;29.23;;;15.98;;
64110;SDS011;50401;48.188;11.566;2023-08-24T04:56:58;33.45;;;15.48;;
64110;SDS011;50401;48.188;11.566;2023-08-24T04:59:23;31.30;;;16.55;;
64110;SDS011;50401;48.188;11.566;2023-08-24T05:01:49;34.83;;;16.65;;
64110;SDS011;50401;48.188;11.566;2023-08-24T05:04:14;34.72;;;16.15;;
64110;SDS011;50401;48.188;11.566;2023-08-24T05:06:39;27.85;;;16.50;;
64110;SDS011;50401;48.188;11.566;2023-08-24T05:09:05;35.25;;;16.73;;
64110;SDS011;50401;48.188;11.566;2023-08-24T05:11:30;28.00;;;16.42;;
64110;SDS011;50401;48.188;11.566;2023-08-24T05:13:56;38.75;;;17.35;;
64110;SDS011;50401;48.188;11.566;2023-08-24T05:16:21;38.33;;;16.10;;
64110;SDS011;50401;48.188;11.566;2023-08-24T05:18:47;44.42;;;16.75;;
64110;SDS011;50401;48.188;11.566;2023-08-24T05:21:12;43.35;;;16.77;;
64110;SDS011;50401;48.188;11.566;2023-08-24T05:23:38;45.70;;;17.17;;
64110;SDS011;50401;48.188;11.566;2023-08-24T05:26:03;46.55;;;17.05;;
64110;SDS011;50401;48.188;11.566;2023-08-24T05:28:29;37.75;;;16.15;;
64110;SDS011;50401;48.188;11.566;2023-08-24T05:30:55;32.42;;;15.70;;
64110;SDS011;50401;48.188;11.566;2023-08-24T05:33:21;42.40;;;17.17;;
64110;SDS011;50401;48.188;11.566;2023-08-24T05:35:48;34.80;;;15.88;;
64110;SDS011;50401;48.188;11.566;2023-08-24T05:38:17;30.15;;;15.98;;
64110;SDS011;50401;48.188;11.566;2023-08-24T05:40:43;33.25;;;16.92;;
64110;SDS011;50401;48.188;11.566;2023-08-24T05:43:11;27.98;;;16.55;;
64110;SDS011;50401;48.188;11.566;2023-08-24T05:45:37;32.25;;;17.35;;
64110;SDS011;50401;48.188;11.566;2023-08-24T05:48:04;32.72;;;18.27;;
64110;SDS011;50401;48.188;11.566;2023-08-24T05:50:30;33.35;;;18.42;;
64110;SDS011;50401;48.188;11.566;2023-08-24T05:52:55;28.42;;;17.45;;
64110;SDS011;50401;48.188;11.566;2023-08-24T05:55:21;33.95;;;18.08;;
64110;SDS011;50401;48.188;11.566;2023-08-24T05:57:46;39.53;;;17.83;;
64110;SDS011;50401;48.188;11.566;2023-08-24T06:00:11;33.80;;;19.48;;
64110;SDS011;50401;48.188;11.566;2023-08-24T06:02:37;27.23;;;17.65;;
64110;SDS011;50401;48.188;11.566;2023-08-24T06:05:04;35.53;;;18.52;;
64110;SDS011;50401;48.188;11.566;2023-08-24T06:07:30;34.38;;;18.52;;
64110;SDS011;50401;48.188;11.566;2023-08-24T06:09:58;34.97;;;18.75;;
64110;SDS011;50401;48.188;11.566;2023-08-24T06:12:24;38.10;;;18.33;;
64110;SDS011;50401;48.188;11.566;2023-08-24T06:14:49;39.30;;;19.42;;
64110;SDS011;50401;48.188;11.566;2023-08-24T06:17:14;36.40;;;19.25;;
64110;SDS011;50401;48.188;11.566;2023-08-24T06:19:40;26.45;;;18.45;;
64110;SDS011;50401;48.188;11.566;2023-08-24T06:22:06;33.75;;;19.48;;
64110;SDS011;50401;48.188;11.566;2023-08-24T06:24:32;28.15;;;18.85;;
64110;SDS011;50401;48.188;11.566;2023-08-24T06:26:57;25.98;;;16.95;;
64110;SDS011;50401;48.188;11.566;2023-08-24T06:29:22;37.78;;;19.38;;
64110;SDS011;50401;48.188;11.566;2023-08-24T06:31:47;35.92;;;18.63;;
64110;SDS011;50401;48.188;11.566;2023-08-24T06:34:13;38.30;;;18.02;;
64110;SDS011;50401;48.188;11.566;2023-08-24T06:36:38;30.02;;;17.92;;
64110;SDS011;50401;48.188;11.566;2023-08-24T06:39:03;31.75;;;17.42;;
64110;SDS011;50401;48.188;11.566;2023-08-24T06:41:32;37.97;;;17.23;;
64110;SDS011;50401;48.188;11.566;2023-08-24T06:44:00;33.10;;;17.63;;
64110;SDS011;50401;48.188;11.566;2023-08-24T06:46:27;36.47;;;16.88;;
64110;SDS011;50401;48.188;11.566;2023-08-24T06:48:52;28.30;;;16.65;;
64110;SDS011;50401;48.188;11.566;2023-08-24T06:51:18;23.80;;;14.73;;
64110;SDS011;50401;48.188;11.566;2023-08-24T06:53:43;38.30;;;15.88;;
64110;SDS011;50401;48.188;11.566;2023-08-24T06:56:09;36.42;;;16.42;;
64110;SDS011;50401;48.188;11.566;2023-08-24T06:58:34;29.30;;;15.95;;
64110;SDS011;50401;48.188;11.566;2023-08-24T07:01:00;24.75;;;15.32;;
64110;SDS011;50401;48.188;11.566;2023-08-24T07:03:25;36.40;;;15.60;;
64110;SDS011;50401;48.188;11.566;2023-08-24T07:05:51;28.55;;;15.07;;
64110;SDS011;50401;48.188;11.566;2023-08-24T07:08:16;31.65;;;16.25;;
64110;SDS011;50401;48.188;11.566;2023-08-24T07:10:42;26.27;;;15.63;;
64110;SDS011;50401;48.188;11.566;2023-08-24T07:13:07;26.50;;;14.70;;
64110;SDS011;50401;48.188;11.566;2023-08-24T07:15:34;29.77;;;14.25;;
64110;SDS011;50401;48.188;11.566;2023-08-24T07:18:00;34.80;;;15.73;;
64110;SDS011;50401;48.188;11.566;2023-08-24T07:20:26;28.45;;;14.48;;
64110;SDS011;50401;48.188;11.566;2023-08-24T07:22:51;29.70;;;15.02;;
64110;SDS011;50401;48.188;11.566;2023-08-24T07:25:18;21.85;;;13.25;;
64110;SDS011;50401;48.188;11.566;2023-08-24T07:27:45;24.88;;;13.45;;
64110;SDS011;50401;48.188;11.566;2023-08-24T07:30:11;27.27;;;13.80;;
64110;SDS011;50401;48.188;11.566;2023-08-24T07:32:36;23.52;;;12.80;;
64110;SDS011;50401;48.188;11.566;2023-08-24T07:35:02;37.42;;;14.10;;
64110;SDS011;50401;48.188;11.566;2023-08-24T07:37:27;25.08;;;13.05;;
64110;SDS011;50401;48.188;11.566;2023-08-24T07:39:53;26.05;;;13.32;;
64110;SDS011;50401;48.188;11.566;2023-08-24T07:42:21;20.55;;;14.30;;
64110;SDS011;50401;48.188;11.566;2023-08-24T07:44:47;26.67;;;14.23;;
64110;SDS011;50401;48.188;11.566;2023-08-24T07:47:13;22.83;;;14.23;;
64110;SDS011;50401;48.188;11.566;2023-08-24T07:49:38;26.00;;;13.48;;
64110;SDS011;50401;48.188;11.566;2023-08-24T07:52:09;24.98;;;13.07;;
64110;SDS011;50401;48.188;11.566;2023-08-24T07:54:36;28.83;;;14.45;;
64110;SDS011;50401;48.188;11.566;2023-08-24T07:57:01;29.63;;;12.88;;
64110;SDS011;50401;48.188;11.566;2023-08-24T07:59:26;22.45;;;12.80;;
64110;SDS011;50401;48.188;11.566;2023-08-24T08:01:52;24.50;;;12.93;;
64110;SDS011;50401;48.188;11.566;2023-08-24T08:04:17;24.48;;;12.57;;
64110;SDS011;50401;48.188;11.566;2023-08-24T08:06:42;19.75;;;12.25;;
64110;SDS011;50401;48.188;11.566;2023-08-24T08:09:08;24.77;;;12.52;;
64110;SDS011;50401;48.188;11.566;2023-08-24T08:11:33;29.45;;;13.07;;
64110;SDS011;50401;48.188;11.566;2023-08-24T08:13:59;23.48;;;12.18;;
64110;SDS011;50401;48.188;11.566;2023-08-24T08:16:25;23.23;;;12.98;;
64110;SDS011;50401;48.188;11.566;2023-08-24T08:18:50;26.90;;;12.80;;
64110;SDS011;50401;48.188;11.566;2023-08-24T08:21:16;24.83;;;11.77;;
64110;SDS011;50401;48.188;11.566;2023-08-24T08:23:45;25.55;;;13.32;;
64110;SDS011;50401;48.188;11.566;2023-08-24T08:26:11;22.50;;;12.07;;
64110;SDS011;50401;48.188;11.566;2023-08-24T08:28:37;19.73;;;11.80;;
64110;SDS011;50401;48.188;11.566;2023-08-24T08:31:02;28.02;;;11.65;;
64110;SDS011;50401;48.188;11.566;2023-08-24T08:33:28;25.00;;;11.85;;
64110;SDS011;50401;48.188;11.566;2023-08-24T08:35:54;25.10;;;13.98;;
64110;SDS011;50401;48.188;11.566;2023-08-24T08:38:19;22.38;;;12.27;;
64110;SDS011;50401;48.188;11.566;2023-08-24T08:40:47;26.95;;;12.30;;
64110;SDS011;50401;48.188;11.566;2023-08-24T08:43:14;36.83;;;12.30;;
64110;SDS011;50401;48.188;11.566;2023-08-24T08:45:39;20.30;;;10.93;;
64110;SDS011;50401;48.188;11.566;2023-08-24T08:48:05;35.25;;;12.52;;
64110;SDS011;50401;48.188;11.566;2023-08-24T08:50:31;25.55;;;11.88;;
64110;SDS011;50401;48.188;11.566;2023-08-24T08:52:58;28.33;;;13.20;;
64110;SDS011;50401;48.188;11.566;2023-08-24T08:55:23;29.73;;;12.80;;
64110;SDS011;50401;48.188;11.566;2023-08-24T08:57:50;35.22;;;12.75;;
64110;SDS011;50401;48.188;11.566;2023-08-24T09:00:18;21.40;;;12.13;;
64110;SDS011;50401;48.188;11.566;2023-08-24T09:02:45;25.30;;;12.27;;
64110;SDS011;50401;48.188;11.566;2023-08-24T09:05:12;25.45;;;12.85;;
64110;SDS011;50401;48.188;11.566;2023-08-24T09:07:41;21.33;;;13.57;;
64110;SDS011;50401;48.188;11.566;2023-08-24T09:10:07;37.03;;;14.10;;
64110;SDS011;50401;48.188;11.566;2023-08-24T09:12:33;24.40;;;13.13;;
64110;SDS011;50401;48.188;11.566;2023-08-24T09:14:59;26.02;;;13.55;;
64110;SDS011;50401;48.188;11.566;2023-08-24T09:19:55;29.98;;;13.95;;
64110;SDS011;50401;48.188;11.566;2023-08-24T09:22:23;35.80;;;14.63;;
64110;SDS011;50401;48.188;11.566;2023-08-24T09:24:48;23.90;;;13.52;;
64110;SDS011;50401;48.188;11.566;2023-08-24T09:27:16;26.27;;;14.07;;
64110;SDS011;50401;48.188;11.566;2023-08-24T09:29:51;38.72;;;14.48;;
64110;SDS011;50401;48.188;11.566;2023-08-24T09:32:24;31.58;;;13.95;;
64110;SDS011;50401;48.188;11.566;2023-08-24T09:34:52;24.40;;;12.45;;
64110;SDS011;50401;48.188;11.566;2023-08-24T09:37:18;28.33;;;13.32;;
64110;SDS011;50401;48.188;11.566;2023-08-24T09:39:45;25.15;;;13.70;;
64110;SDS011;50401;48.188;11.566;2023-08-24T09:42:10;26.42;;;13.38;;
64110;SDS011;50401;48.188;11.566;2023-08-24T09:44:36;20.80;;;13.65;;
64110;SDS011;50401;48.188;11.566;2023-08-24T09:47:01;38.17;;;14.57;;
64110;SDS011;50401;48.188;11.566;2023-08-24T09:49:28;28.85;;;14.38;;
64110;SDS011;50401;48.188;11.566;2023-08-24T09:51:56;32.05;;;14.38;;
64110;SDS011;50401;48.188;11.566;2023-08-24T09:54:25;36.25;;;13.25;;
64110;SDS011;50401;48.188;11.566;2023-08-24T09:56:52;29.83;;;14.35;;
64110;SDS011;50401;48.188;11.566;2023-08-24T09:59:21;25.50;;;13.57;;
64110;SDS011;50401;48.188;11.566;2023-08-24T10:01:49;30.60;;;13.52;;
64110;SDS011;50401;48.188;11.566;2023-08-24T10:04:23;32.65;;;13.90;;
64110;SDS011;50401;48.188;11.566;2023-08-24T10:06:54;20.88;;;12.82;;
64110;SDS011;50401;48.188;11.566;2023-08-24T10:09:22;38.38;;;13.15;;
64110;SDS011;50401;48.188;11.566;2023-08-24T10:11:53;31.27;;;13.55;;
64110;SDS011;50401;48.188;11.566;2023-08-24T10:14:27;24.60;;;13.75;;
64110;SDS011;50401;48.188;11.566;2023-08-24T10:16:56;22.20;;;12.63;;
64110;SDS011;50401;48.188;11.566;2023-08-24T10:19:22;29.10;;;13.10;;
64110;SDS011;50401;48.188;11.566;2023-08-24T10:21:49;21.13;;;12.07;;
64110;SDS011;50401;48.188;11.566;2023-08-24T10:24:17;26.85;;;12.95;;
64110;SDS011;50401;48.188;11.566;2023-08-24T10:26:45;26.77;;;13.02;;
64110;SDS011;50401;48.188;11.566;2023-08-24T10:29:11;30.27;;;12.07;;
64110;SDS011;50401;48.188;11.566;2023-08-24T10:31:37;37.08;;;12.73;;
64110;SDS011;50401;48.188;11.566;2023-08-24T10:34:04;29.55;;;12.07;;
64110;SDS011;50401;48.188;11.566;2023-08-24T10:36:31;27.15;;;12.30;;
64110;SDS011;50401;48.188;11.566;2023-08-24T10:38:56;24.05;;;12.35;;
64110;SDS011;50401;48.188;11.566;2023-08-24T10:41:27;28.13;;;11.93;;
64110;SDS011;50401;48.188;11.566;2023-08-24T10:43:53;26.52;;;13.65;;
64110;SDS011;50401;48.188;11.566;2023-08-24T10:48:59;26.05;;;12.50;;
64110;SDS011;50401;48.188;11.566;2023-08-24T10:51:25;29.48;;;12.13;;
64110;SDS011;50401;48.188;11.566;2023-08-24T10:53:56;19.23;;;11.27;;
64110;SDS011;50401;48.188;11.566;2023-08-24T10:56:29;36.40;;;13.02;;
64110;SDS011;50401;48.188;11.566;2023-08-24T11:01:59;21.00;;;10.75;;
64110;SDS011;50401;48.188;11.566;2023-08-24T11:04:26;28.25;;;10.80;;
64110;SDS011;50401;48.188;11.566;2023-08-24T11:06:56;20.90;;;10.50;;
64110;SDS011;50401;48.188;11.566;2023-08-24T11:09:24;18.83;;;10.50;;
64110;SDS011;50401;48.188;11.566;2023-08-24T11:12:00;32.15;;;10.88;;
64110;SDS011;50401;48.188;11.566;2023-08-24T11:14:26;24.70;;;10.02;;
64110;SDS011;50401;48.188;11.566;2023-08-24T11:16:57;26.33;;;10.18;;
64110;SDS011;50401;48.188;11.566;2023-08-24T11:19:24;30.55;;;11.77;;
64110;SDS011;50401;48.188;11.566;2023-08-24T11:21:50;30.08;;;10.10;;
64110;SDS011;50401;48.188;11.566;2023-08-24T11:24:16;20.55;;;9.80;;
64110;SDS011;50401;48.188;11.566;2023-08-24T11:26:43;21.23;;;10.27;;
64110;SDS011;50401;48.188;11.566;2023-08-24T11:29:10;20.05;;;9.88;;
64110;SDS011;50401;48.188;11.566;2023-08-24T11:31:36;30.02;;;10.18;;
64110;SDS011;50401;48.188;11.566;2023-08-24T11:34:02;23.98;;;10.68;;
64110;SDS011;50401;48.188;11.566;2023-08-24T11:36:29;23.42;;;9.43;;
64110;SDS011;50401;48.188;11.566;2023-08-24T11:39:05;28.02;;;10.55;;
64110;SDS011;50401;48.188;11.566;2023-08-24T11:41:31;27.23;;;10.18;;
64110;SDS011;50401;48.188;11.566;2023-08-24T11:44:00;23.10;;;9.32;;
64110;SDS011;50401;48.188;11.566;2023-08-24T11:46:25;29.38;;;9.77;;
64110;SDS011;50401;48.188;11.566;2023-08-24T11:48:53;19.30;;;9.57;;
64110;SDS011;50401;48.188;11.566;2023-08-24T11:51:19;24.70;;;10.77;;
64110;SDS011;50401;48.188;11.566;2023-08-24T11:53:44;26.83;;;10.02;;
64110;SDS011;50401;48.188;11.566;2023-08-24T11:56:14;34.20;;;9.35;;
64110;SDS011;50401;48.188;11.566;2023-08-24T11:58:42;28.60;;;9.95;;
64110;SDS011;50401;48.188;11.566;2023-08-24T12:01:08;33.10;;;10.70;;
64110;SDS011;50401;48.188;11.566;2023-08-24T12:03:35;28.75;;;9.55;;
64110;SDS011;50401;48.188;11.566;2023-08-24T12:06:01;22.83;;;9.90;;
64110;SDS011;50401;48.188;11.566;2023-08-24T12:10:55;24.90;;;10.15;;
64110;SDS011;50401;48.188;11.566;2023-08-24T12:13:20;33.08;;;9.63;;
64110;SDS011;50401;48.188;11.566;2023-08-24T12:15:47;32.10;;;9.95;;
64110;SDS011;50401;48.188;11.566;2023-08-24T12:18:15;35.53;;;9.55;;
64110;SDS011;50401;48.188;11.566;2023-08-24T12:20:41;31.98;;;8.75;;
64110;SDS011;50401;48.188;11.566;2023-08-24T12:23:06;29.55;;;9.32;;
64110;SDS011;50401;48.188;11.566;2023-08-24T12:25:42;18.13;;;9.10;;
64110;SDS011;50401;48.188;11.566;2023-08-24T12:28:09;26.58;;;9.52;;
64110;SDS011;50401;48.188;11.566;2023-08-24T12:30:45;28.50;;;10.02;;
64110;SDS011;50401;48.188;11.566;2023-08-24T12:33:24;36.83;;;9.48;;
64110;SDS011;50401;48.188;11.566;2023-08-24T12:35:50;29.60;;;9.07;;
64110;SDS011;50401;48.188;11.566;2023-08-24T12:38:17;22.80;;;8.05;;
64110;SDS011;50401;48.188;11.566;2023-08-24T12:40:42;34.33;;;9.40;;
64110;SDS011;50401;48.188;11.566;2023-08-24T12:43:07;33.95;;;8.93;;
64110;SDS011;50401;48.188;11.566;2023-08-24T12:45:32;23.05;;;8.80;;
64110;SDS011;50401;48.188;11.566;2023-08-24T12:47:58;18.38;;;8.80;;
64110;SDS011;50401;48.188;11.566;2023-08-24T12:50:23;38.95;;;9.18;;
64110;SDS011;50401;48.188;11.566;2023-08-24T12:52:48;38.65;;;8.82;;
64110;SDS011;50401;48.188;11.566;2023-08-24T12:55:14;19.73;;;8.77;;
64110;SDS011;50401;48.188;11.566;2023-08-24T12:57:40;25.45;;;8.95;;
64110;SDS011;50401;48.188;11.566;2023-08-24T13:00:05;32.70;;;9.25;;
64110;SDS011;50401;48.188;11.566;2023-08-24T13:02:33;29.13;;;8.88;;
64110;SDS011;50401;48.188;11.566;2023-08-24T13:04:58;26.58;;;8.93;;
64110;SDS011;50401;48.188;11.566;2023-08-24T13:07:26;29.67;;;8.50;;
64110;SDS011;50401;48.188;11.566;2023-08-24T13:09:51;24.40;;;8.38;;
64110;SDS011;50401;48.188;11.566;2023-08-24T13:12:16;29.55;;;8.90;;
64110;SDS011;50401;48.188;11.566;2023-08-24T13:14:42;31.88;;;8.45;;
64110;SDS011;50401;48.188;11.566;2023-08-24T13:17:07;41.35;;;9.27;;
64110;SDS011;50401;48.188;11.566;2023-08-24T13:19:32;45.45;;;8.90;;
64110;SDS011;50401;48.188;11.566;2023-08-24T13:21:58;30.60;;;8.45;;
64110;SDS011;50401;48.188;11.566;2023-08-24T13:24:23;29.80;;;8.50;;
64110;SDS011;50401;48.188;11.566;2023-08-24T13:26:48;26.27;;;9.60;;
64110;SDS011;50401;48.188;11.566;2023-08-24T13:29:14;27.58;;;8.70;;
64110;SDS011;50401;48.188;11.566;2023-08-24T13:31:39;36.53;;;8.65;;
64110;SDS011;50401;48.188;11.566;2023-08-24T13:34:04;24.15;;;8.43;;
64110;SDS011;50401;48.188;11.566;2023-08-24T13:36:32;27.45;;;8.25;;
64110;SDS011;50401;48.188;11.566;2023-08-24T13:38:57;30.33;;;8.98;;
64110;SDS011;50401;48.188;11.566;2023-08-24T13:41:23;32.20;;;8.05;;
64110;SDS011;50401;48.188;11.566;2023-08-24T13:43:48;32.10;;;8.20;;
64110;SDS011;50401;48.188;11.566;2023-08-24T13:46:13;25.13;;;7.68;;
64110;SDS011;50401;48.188;11.566;2023-08-24T13:48:39;32.20;;;7.95;;
64110;SDS011;50401;48.188;11.566;2023-08-24T13:51:04;24.77;;;7.90;;
64110;SDS011;50401;48.188;11.566;2023-08-24T13:53:29;32.03;;;8.65;;
64110;SDS011;50401;48.188;11.566;2023-08-24T13:55:55;32.10;;;8.63;;
64110;SDS011;50401;48.188;11.566;2023-08-24T13:58:20;28.23;;;7.78;;
64110;SDS011;50401;48.188;11.566;2023-08-24T14:00:46;36.45;;;8.77;;
64110;SDS011;50401;48.188;11.566;2023-08-24T14:03:12;26.85;;;8.43;;
64110;SDS011;50401;48.188;11.566;2023-08-24T14:05:40;27.40;;;8.65;;
64110;SDS011;50401;48.188;11.566;2023-08-24T14:10:32;31.92;;;8.43;;
64110;SDS011;50401;48.188;11.566;2023-08-24T14:12:57;25.42;;;8.52;;
64110;SDS011;50401;48.188;11.566;2023-08-24T14:15:23;33.78;;;8.57;;
64110;SDS011;50401;48.188;11.566;2023-08-24T14:17:48;23.33;;;8.40;;
64110;SDS011;50401;48.188;11.566;2023-08-24T14:20:13;28.10;;;8.73;;
64110;SDS011;50401;48.188;11.566;2023-08-24T14:22:39;39.47;;;8.98;;
64110;SDS011;50401;48.188;11.566;2023-08-24T14:25:05;25.30;;;8.88;;